createdAt,value
2018-01-05T00:01:05.081Z,11.50
2018-01-05T00:03:33.418Z,11.60
2018-01-05T00:06:01.762Z,11.60
2018-01-05T00:08:30.084Z,11.70
2018-01-05T00:10:58.423Z,11.70
2018-01-05T00:13:26.746Z,11.70
2018-01-05T00:15:55.078Z,11.50
2018-01-05T00:18:23.384Z,11.60
2018-01-05T00:20:51.995Z,11.60
2018-01-05T00:23:20.245Z,11.70
2018-01-05T00:25:48.539Z,11.10
2018-01-05T00:28:18.554Z,11.20
2018-01-05T00:30:46.510Z,11.20
2018-01-05T00:33:15.100Z,11.10
2018-01-05T00:35:43.146Z,11.20
2018-01-05T00:38:11.364Z,9.10
2018-01-05T00:40:38.914Z,10.80
2018-01-05T00:43:06.835Z,10.90
2018-01-05T00:45:35.150Z,11.00
2018-01-05T00:48:03.460Z,10.90
2018-01-05T00:50:31.989Z,11.00
2018-01-05T00:53:00.285Z,11.00
2018-01-05T00:55:28.566Z,11.10
2018-01-05T00:57:56.868Z,11.20
2018-01-05T01:00:25.151Z,11.10
2018-01-05T01:02:52.707Z,11.00
2018-01-05T01:05:20.625Z,10.60
2018-01-05T01:07:48.559Z,10.50
2018-01-05T01:10:16.080Z,10.40
2018-01-05T01:12:44.125Z,10.40
2018-01-05T01:15:12.409Z,10.30
2018-01-05T01:17:40.934Z,10.60
2018-01-05T01:20:09.299Z,10.70
2018-01-05T01:22:37.647Z,10.80
2018-01-05T01:25:05.933Z,10.90
2018-01-05T01:27:34.237Z,10.80
2018-01-05T01:30:03.101Z,10.80
2018-01-05T01:32:30.625Z,10.70
2018-01-05T01:34:58.176Z,10.60
2018-01-05T01:37:26.080Z,10.50
2018-01-05T01:39:54.420Z,10.50
2018-01-05T01:42:22.709Z,10.40
2018-01-05T01:44:50.961Z,10.30
2018-01-05T01:47:18.487Z,10.20
2018-01-05T01:49:46.453Z,10.00
2018-01-05T01:52:14.725Z,10.00
2018-01-05T01:54:42.825Z,10.10
2018-01-05T01:57:10.350Z,10.20
2018-01-05T01:59:38.280Z,10.20
2018-01-05T02:02:05.797Z,10.10
2018-01-05T02:04:33.724Z,10.00
2018-01-05T02:07:02.009Z,10.00
2018-01-05T02:09:29.552Z,9.90
2018-01-05T02:11:58.208Z,9.80
2018-01-05T02:14:25.783Z,9.70
2018-01-05T02:16:54.065Z,9.70
2018-01-05T02:19:22.912Z,9.70
2018-01-05T02:21:50.819Z,9.60
2018-01-05T02:24:19.937Z,9.50
2018-01-05T02:26:47.489Z,9.40
2018-01-05T02:29:15.777Z,9.40
2018-01-05T02:31:44.057Z,9.40
2018-01-05T02:34:12.351Z,9.40
2018-01-05T02:36:39.892Z,9.50
2018-01-05T02:39:07.865Z,9.50
2018-01-05T02:41:36.145Z,9.60
2018-01-05T02:44:04.450Z,9.60
2018-01-05T02:46:33.573Z,9.60
2018-01-05T02:49:01.431Z,9.60
2018-01-05T02:51:29.351Z,9.50
2018-01-05T02:53:57.621Z,9.50
2018-01-05T02:56:25.152Z,9.60
2018-01-05T02:58:52.674Z,9.70
2018-01-05T03:01:20.204Z,9.50
2018-01-05T03:03:48.476Z,9.60
2018-01-05T03:06:16.773Z,9.60
2018-01-05T03:08:46.851Z,9.50
2018-01-05T03:11:14.778Z,9.50
2018-01-05T03:13:43.057Z,9.50
2018-01-05T03:16:12.104Z,9.40
2018-01-05T03:18:39.624Z,9.40
2018-01-05T03:21:07.150Z,9.50
2018-01-05T03:23:35.073Z,9.50
2018-01-05T03:26:03.405Z,9.50
2018-01-05T03:28:32.416Z,9.50
2018-01-05T03:31:00.689Z,9.50
2018-01-05T03:33:28.960Z,9.50
2018-01-05T03:35:56.884Z,9.50
2018-01-05T03:38:25.179Z,9.50
2018-01-05T03:40:53.579Z,9.50
2018-01-05T03:43:22.180Z,9.50
2018-01-05T03:45:51.034Z,9.50
2018-01-05T03:48:18.542Z,9.50
2018-01-05T03:50:46.835Z,9.60
2018-01-05T03:53:15.122Z,9.50
2018-01-05T03:55:43.414Z,9.50
2018-01-05T03:58:11.316Z,9.50
2018-01-05T04:00:38.852Z,9.50
2018-01-05T04:03:07.133Z,9.60
2018-01-05T04:05:35.445Z,9.70
2018-01-05T04:08:03.725Z,9.70
2018-01-05T04:10:31.265Z,9.80
2018-01-05T04:12:59.188Z,9.80
2018-01-05T04:15:27.489Z,9.90
2018-01-05T04:17:55.773Z,9.90
2018-01-05T04:20:24.058Z,9.90
2018-01-05T04:22:51.596Z,9.90
2018-01-05T04:25:19.492Z,9.80
2018-01-05T04:27:47.790Z,9.90
2018-01-05T04:30:16.064Z,9.90
2018-01-05T04:32:43.594Z,9.90
2018-01-05T04:35:11.100Z,9.90
2018-01-05T04:37:38.623Z,9.80
2018-01-05T04:40:06.717Z,9.70
2018-01-05T04:42:35.008Z,9.70
2018-01-05T04:45:03.291Z,9.80
2018-01-05T04:47:31.705Z,9.80
2018-01-05T04:50:00.188Z,9.70
2018-01-05T04:52:28.111Z,9.70
2018-01-05T04:54:55.634Z,9.80
2018-01-05T04:57:24.570Z,9.80
2018-01-05T04:59:52.085Z,9.90
2018-01-05T05:02:20.385Z,9.90
2018-01-05T05:04:49.461Z,10.00
2018-01-05T05:07:17.061Z,10.00
2018-01-05T05:09:45.688Z,10.00
2018-01-05T05:12:14.368Z,10.00
2018-01-05T05:14:41.936Z,10.10
2018-01-05T05:17:09.464Z,10.20
2018-01-05T05:19:37.369Z,10.20
2018-01-05T05:22:05.746Z,11.50
2018-01-05T05:24:34.033Z,10.20
2018-01-05T05:27:02.930Z,10.20
2018-01-05T05:29:30.841Z,10.20
2018-01-05T05:31:59.241Z,10.30
2018-01-05T05:34:27.526Z,10.30
2018-01-05T05:36:55.820Z,10.20
2018-01-05T05:39:24.132Z,10.30
2018-01-05T05:41:53.340Z,10.20
2018-01-05T05:44:20.891Z,10.20
2018-01-05T05:46:49.180Z,10.10
2018-01-05T05:49:17.486Z,10.20
2018-01-05T05:51:46.497Z,10.20
2018-01-05T05:54:14.044Z,10.30
2018-01-05T05:56:41.553Z,10.30
2018-01-05T05:59:09.495Z,10.30
2018-01-05T06:01:37.781Z,10.30
2018-01-05T06:04:06.220Z,10.30
2018-01-05T06:06:35.073Z,10.30
2018-01-05T06:09:03.008Z,10.10
2018-01-05T06:11:31.285Z,10.20
2018-01-05T06:13:59.716Z,10.20
2018-01-05T06:16:28.742Z,10.30
2018-01-05T06:18:56.285Z,10.30
2018-01-05T06:21:24.560Z,10.30
2018-01-05T06:23:52.097Z,10.20
2018-01-05T06:26:20.010Z,10.20
2018-01-05T06:28:48.390Z,10.20
2018-01-05T06:31:16.673Z,10.10
2018-01-05T06:33:44.986Z,10.10
2018-01-05T06:36:13.270Z,10.10
2018-01-05T06:38:40.797Z,10.10
2018-01-05T06:41:08.722Z,10.10
2018-01-05T06:43:37.068Z,10.10
2018-01-05T06:46:06.108Z,10.00
2018-01-05T06:48:34.415Z,9.90
2018-01-05T06:51:01.941Z,9.70
2018-01-05T06:53:30.565Z,9.60
2018-01-05T06:55:58.465Z,9.60
2018-01-05T06:58:25.987Z,9.50
2018-01-05T07:00:53.911Z,9.40
2018-01-05T07:03:22.195Z,9.30
2018-01-05T07:05:49.724Z,9.30
2018-01-05T07:08:18.370Z,9.20
2018-01-05T07:10:45.911Z,9.20
2018-01-05T07:13:14.492Z,9.20
2018-01-05T07:15:42.777Z,9.20
2018-01-05T07:18:11.053Z,9.10
2018-01-05T07:20:39.354Z,9.10
2018-01-05T07:23:07.642Z,9.10
2018-01-05T07:25:35.948Z,9.10
2018-01-05T07:28:04.527Z,9.10
2018-01-05T07:30:32.841Z,9.10
2018-01-05T07:33:01.112Z,8.80
2018-01-05T07:35:29.416Z,9.00
2018-01-05T07:37:57.701Z,8.80
2018-01-05T07:40:26.001Z,8.80
2018-01-05T07:42:53.512Z,8.80
2018-01-05T07:45:21.445Z,8.90
2018-01-05T07:47:49.346Z,8.90
2018-01-05T07:50:16.931Z,11.00
2018-01-05T07:52:45.221Z,8.90
2018-01-05T07:55:13.157Z,9.00
2018-01-05T07:57:40.664Z,9.00
2018-01-05T08:00:08.595Z,9.40
2018-01-05T08:02:36.860Z,9.20
2018-01-05T08:05:04.392Z,9.30
2018-01-05T08:07:32.313Z,9.50
2018-01-05T08:10:00.616Z,9.70
2018-01-05T08:12:28.901Z,9.60
2018-01-05T08:14:57.221Z,9.80
2018-01-05T08:17:24.749Z,10.00
2018-01-05T08:19:53.519Z,10.20
2018-01-05T08:22:21.040Z,10.20
2018-01-05T08:24:49.332Z,10.30
2018-01-05T08:27:17.630Z,10.50
2018-01-05T08:29:45.913Z,10.60
2018-01-05T08:32:14.205Z,10.70
2018-01-05T08:34:42.506Z,10.90
2018-01-05T08:37:10.845Z,10.80
2018-01-05T08:39:38.421Z,10.60
2018-01-05T08:42:06.356Z,10.70
2018-01-05T08:44:34.501Z,10.80
2018-01-05T08:47:02.528Z,10.80
2018-01-05T08:49:30.748Z,11.10
2018-01-05T08:51:58.293Z,11.30
2018-01-05T08:54:26.589Z,11.50
2018-01-05T08:56:54.888Z,11.90
2018-01-05T08:59:23.171Z,12.60
2018-01-05T09:01:51.485Z,13.30
2018-01-05T09:04:20.493Z,13.70
2018-01-05T09:06:48.412Z,13.70
2018-01-05T09:09:16.696Z,13.80
2018-01-05T09:11:44.989Z,13.50
2018-01-05T09:14:14.122Z,13.30
2018-01-05T09:16:41.646Z,13.50
2018-01-05T09:19:09.966Z,13.50
2018-01-05T09:21:38.273Z,13.60
2018-01-05T09:24:06.568Z,13.70
2018-01-05T09:26:34.864Z,13.60
2018-01-05T09:29:03.336Z,13.10
2018-01-05T09:31:31.637Z,13.20
2018-01-05T09:33:59.924Z,13.40
2018-01-05T09:36:28.221Z,13.60
2018-01-05T09:38:56.756Z,13.60
2018-01-05T09:41:28.438Z,13.60
2018-01-05T09:43:56.678Z,13.70
2018-01-05T09:46:24.983Z,14.00
2018-01-05T09:48:52.908Z,14.20
2018-01-05T09:51:21.192Z,14.40
2018-01-05T09:53:49.696Z,14.60
2018-01-05T09:56:17.972Z,14.60
2018-01-05T09:58:46.283Z,14.40
2018-01-05T10:01:14.569Z,14.50
2018-01-05T10:03:42.874Z,14.30
2018-01-05T10:06:11.231Z,14.30
2018-01-05T10:08:39.536Z,14.10
2018-01-05T10:11:07.948Z,14.00
2018-01-05T10:13:36.318Z,14.20
2018-01-05T10:16:04.700Z,14.10
2018-01-05T10:18:33.006Z,14.10
2018-01-05T10:21:01.304Z,14.30
2018-01-05T10:23:30.350Z,14.50
2018-01-05T10:25:58.847Z,14.60
2018-01-05T10:28:26.980Z,14.70
2018-01-05T10:30:55.266Z,14.80
2018-01-05T10:33:22.797Z,14.90
2018-01-05T10:35:51.082Z,14.90
2018-01-05T10:38:18.611Z,15.00
2018-01-05T10:40:47.114Z,15.00
2018-01-05T10:43:18.226Z,15.10
2018-01-05T10:45:46.509Z,15.10
2018-01-05T10:48:14.440Z,15.10
2018-01-05T10:50:42.809Z,15.10
2018-01-05T10:53:11.134Z,15.20
2018-01-05T10:55:39.463Z,15.10
2018-01-05T10:58:10.534Z,15.10
2018-01-05T11:00:38.817Z,15.10
2018-01-05T11:03:07.127Z,15.10
2018-01-05T11:05:35.404Z,15.10
2018-01-05T11:08:03.952Z,15.10
2018-01-05T11:10:32.269Z,15.10
2018-01-05T11:13:01.186Z,15.20
2018-01-05T11:15:29.485Z,15.20
2018-01-05T11:17:57.398Z,15.30
2018-01-05T11:20:25.705Z,15.20
2018-01-05T11:22:54.036Z,15.30
2018-01-05T11:25:22.334Z,15.20
2018-01-05T11:27:51.416Z,15.30
2018-01-05T11:30:18.957Z,15.10
2018-01-05T11:32:47.876Z,15.00
2018-01-05T11:35:15.410Z,14.90
2018-01-05T11:37:42.926Z,15.00
2018-01-05T11:40:10.857Z,15.10
2018-01-05T11:42:39.138Z,15.20
2018-01-05T11:45:07.439Z,15.20
2018-01-05T11:47:35.775Z,15.10
2018-01-05T11:50:04.120Z,15.10
2018-01-05T11:52:38.943Z,15.10
2018-01-05T11:55:08.529Z,15.10
2018-01-05T11:57:36.202Z,15.20
2018-01-05T12:00:04.565Z,15.30
2018-01-05T12:02:35.238Z,15.30
2018-01-05T12:05:05.903Z,15.30
2018-01-05T12:07:36.218Z,15.20
2018-01-05T12:10:04.915Z,15.40
2018-01-05T12:12:36.533Z,15.40
2018-01-05T12:15:08.494Z,15.40
2018-01-05T12:17:36.779Z,15.40
2018-01-05T12:20:05.788Z,15.50
2018-01-05T12:22:33.356Z,15.60
2018-01-05T12:25:01.952Z,15.50
2018-01-05T12:27:30.241Z,15.40
2018-01-05T12:29:58.542Z,15.30
2018-01-05T12:32:27.237Z,15.40
2018-01-05T12:34:55.182Z,15.50
2018-01-05T12:37:23.464Z,15.60
2018-01-05T12:39:51.840Z,15.60
2018-01-05T12:42:20.131Z,15.50
2018-01-05T12:44:48.678Z,15.50
2018-01-05T12:47:16.965Z,15.50
2018-01-05T12:49:45.334Z,15.50
2018-01-05T12:52:13.657Z,15.40
2018-01-05T12:54:41.947Z,15.40
2018-01-05T12:57:10.277Z,15.40
2018-01-05T12:59:38.942Z,15.30
2018-01-05T13:02:06.880Z,13.30
2018-01-05T13:04:35.166Z,15.30
2018-01-05T13:07:03.605Z,15.20
2018-01-05T13:09:31.892Z,15.20
2018-01-05T13:12:00.209Z,15.10
2018-01-05T13:14:29.320Z,14.80
2018-01-05T13:16:57.656Z,14.20
2018-01-05T13:19:25.193Z,14.20
2018-01-05T13:21:53.494Z,14.40
2018-01-05T13:24:21.037Z,14.60
2018-01-05T13:26:48.957Z,14.80
2018-01-05T13:29:17.233Z,14.90
2018-01-05T13:31:45.553Z,14.90
2018-01-05T13:34:13.873Z,14.90
2018-01-05T13:36:42.183Z,15.00
2018-01-05T13:39:10.738Z,15.00
2018-01-05T13:41:39.648Z,15.00
2018-01-05T13:44:07.162Z,15.00
2018-01-05T13:46:34.697Z,15.00
2018-01-05T13:49:02.616Z,15.00
2018-01-05T13:51:30.916Z,14.90
2018-01-05T13:54:01.504Z,14.80
2018-01-05T13:56:29.042Z,14.60
2018-01-05T13:58:57.449Z,14.40
2018-01-05T14:01:26.498Z,14.40
2018-01-05T14:03:54.022Z,14.40
2018-01-05T14:06:22.309Z,14.50
2018-01-05T14:08:50.588Z,14.50
2018-01-05T14:11:19.003Z,14.60
2018-01-05T14:13:47.284Z,14.50
2018-01-05T14:16:15.823Z,14.60
2018-01-05T14:18:44.125Z,14.60
2018-01-05T14:21:12.414Z,14.50
2018-01-05T14:23:41.638Z,14.60
2018-01-05T14:26:09.144Z,14.50
2018-01-05T14:28:37.443Z,14.40
2018-01-05T14:31:05.839Z,14.40
2018-01-05T14:33:34.944Z,14.40
2018-01-05T14:36:03.230Z,14.40
2018-01-05T14:38:30.815Z,14.40
2018-01-05T14:40:59.433Z,14.40
2018-01-05T14:43:27.380Z,14.30
2018-01-05T14:45:55.653Z,14.30
2018-01-05T14:48:23.967Z,14.30
2018-01-05T14:50:53.105Z,14.30
2018-01-05T14:53:20.634Z,14.40
2018-01-05T14:55:48.145Z,14.30
2018-01-05T14:58:18.652Z,14.30
2018-01-05T15:00:46.171Z,14.30
2018-01-05T15:03:15.304Z,14.20
2018-01-05T15:05:42.813Z,14.20
2018-01-05T15:08:10.891Z,14.20
2018-01-05T15:10:39.164Z,14.20
2018-01-05T15:13:07.474Z,14.20
2018-01-05T15:15:35.752Z,14.10
2018-01-05T15:18:04.069Z,14.10
2018-01-05T15:20:32.408Z,14.10
2018-01-05T15:22:59.951Z,14.10
2018-01-05T15:25:27.864Z,14.00
2018-01-05T15:27:56.161Z,14.00
2018-01-05T15:30:25.172Z,13.90
2018-01-05T15:32:52.706Z,13.80
2018-01-05T15:35:20.989Z,13.80
2018-01-05T15:37:48.522Z,13.60
2018-01-05T15:40:17.207Z,13.40
2018-01-05T15:42:44.751Z,13.10
2018-01-05T15:45:13.040Z,12.90
2018-01-05T15:47:40.556Z,12.80
2018-01-05T15:50:08.486Z,13.00
2018-01-05T15:52:36.773Z,13.20
2018-01-05T15:55:05.064Z,13.20
2018-01-05T15:57:33.501Z,13.00
2018-01-05T16:00:01.838Z,12.90
2018-01-05T16:02:30.117Z,12.90
2018-01-05T16:04:58.414Z,13.00
2018-01-05T16:07:26.689Z,13.00
2018-01-05T16:09:55.395Z,13.10
2018-01-05T16:12:23.682Z,12.90
2018-01-05T16:14:52.015Z,12.90
2018-01-05T16:17:20.345Z,12.60
2018-01-05T16:19:48.642Z,12.50
2018-01-05T16:22:17.713Z,12.70
2018-01-05T16:24:45.259Z,12.80
2018-01-05T16:27:13.538Z,12.90
2018-01-05T16:29:41.832Z,12.60
2018-01-05T16:32:11.017Z,12.60
2018-01-05T16:34:38.664Z,12.60
2018-01-05T16:37:06.981Z,12.70
2018-01-05T16:39:35.288Z,12.80
2018-01-05T16:42:04.151Z,12.90
2018-01-05T16:44:32.155Z,13.00
2018-01-05T16:47:01.365Z,13.10
2018-01-05T16:49:28.934Z,13.20
2018-01-05T16:51:57.312Z,13.40
2018-01-05T16:54:26.030Z,11.30
2018-01-05T16:56:53.549Z,13.10
2018-01-05T16:59:21.894Z,13.00
2018-01-05T17:01:50.214Z,12.80
2018-01-05T17:04:18.560Z,12.60
2018-01-05T17:06:46.905Z,12.50
2018-01-05T17:09:16.059Z,12.40
2018-01-05T17:11:44.409Z,12.30
2018-01-05T17:14:11.948Z,12.30
2018-01-05T17:16:40.317Z,12.20
2018-01-05T17:19:08.759Z,12.20
2018-01-05T17:21:37.060Z,12.10
2018-01-05T17:24:05.357Z,12.00
2018-01-05T17:26:34.067Z,12.00
2018-01-05T17:29:02.019Z,12.00
2018-01-05T17:31:30.376Z,12.00
2018-01-05T17:33:58.655Z,11.90
2018-01-05T17:36:27.000Z,11.90
2018-01-05T17:38:55.450Z,11.90
2018-01-05T17:41:24.534Z,11.80
2018-01-05T17:43:52.506Z,11.80
2018-01-05T17:46:21.395Z,11.70
2018-01-05T17:48:50.086Z,11.80
2018-01-05T17:51:18.424Z,11.70
2018-01-05T17:53:46.742Z,11.70
2018-01-05T17:56:14.289Z,11.70
2018-01-05T17:58:42.257Z,11.70
2018-01-05T18:01:10.925Z,11.60
2018-01-05T18:03:38.897Z,11.50
2018-01-05T18:06:07.248Z,11.60
2018-01-05T18:08:35.538Z,11.50
2018-01-05T18:11:03.881Z,11.50
2018-01-05T18:13:32.226Z,11.60
2018-01-05T18:16:00.637Z,11.50
2018-01-05T18:18:29.055Z,11.50
2018-01-05T18:20:57.344Z,11.50
2018-01-05T18:23:25.691Z,11.30
2018-01-05T18:25:54.240Z,11.50
2018-01-05T18:28:22.597Z,11.50
2018-01-05T18:30:50.507Z,11.50
2018-01-05T18:33:18.863Z,11.50
2018-01-05T18:35:46.379Z,11.50
2018-01-05T18:38:14.359Z,11.50
2018-01-05T18:40:42.693Z,11.50
2018-01-05T18:43:11.843Z,11.50
2018-01-05T18:45:39.409Z,11.60
2018-01-05T18:48:07.755Z,11.20
2018-01-05T18:50:36.029Z,11.00
2018-01-05T18:53:03.956Z,11.20
2018-01-05T18:55:31.515Z,11.30
2018-01-05T18:57:59.846Z,11.30
2018-01-05T19:00:27.420Z,11.50
2018-01-05T19:02:55.726Z,11.30
2018-01-05T19:05:24.246Z,11.30
2018-01-05T19:07:51.784Z,11.10
2018-01-05T19:10:20.911Z,11.20
2018-01-05T19:12:48.496Z,11.10
2018-01-05T19:15:16.057Z,11.10
2018-01-05T19:17:44.663Z,11.30
2018-01-05T19:20:12.227Z,11.20
2018-01-05T19:22:39.931Z,11.20
2018-01-05T19:25:07.500Z,11.30
2018-01-05T19:27:35.081Z,11.30
2018-01-05T19:30:03.080Z,11.30
2018-01-05T19:32:30.649Z,11.30
2018-01-05T19:34:58.237Z,11.40
2018-01-05T19:37:25.800Z,11.40
2018-01-05T19:39:53.400Z,11.30
2018-01-05T19:42:21.720Z,11.40
2018-01-05T19:44:49.307Z,11.40
2018-01-05T19:47:16.871Z,11.40
2018-01-05T19:49:44.451Z,11.30
2018-01-05T19:52:12.029Z,11.30
2018-01-05T19:54:39.612Z,11.40
2018-01-05T19:57:07.174Z,11.40
2018-01-05T19:59:35.057Z,11.40
2018-01-05T20:02:02.635Z,11.40
2018-01-05T20:04:31.037Z,11.40
2018-01-05T20:06:58.604Z,11.40
2018-01-05T20:09:26.184Z,11.50
2018-01-05T20:11:53.743Z,11.50
2018-01-05T20:14:21.327Z,11.60
2018-01-05T20:16:48.895Z,11.60
2018-01-05T20:19:16.489Z,11.50
2018-01-05T20:21:44.069Z,11.50
2018-01-05T20:24:11.672Z,11.50
2018-01-05T20:26:39.226Z,11.20
2018-01-05T20:29:06.798Z,11.30
2018-01-05T20:31:34.353Z,11.30
2018-01-05T20:34:01.941Z,11.40
2018-01-05T20:36:29.913Z,11.50
2018-01-05T20:38:57.500Z,11.50
2018-01-05T20:41:25.058Z,11.50
2018-01-05T20:43:52.648Z,11.60
2018-01-05T20:46:20.237Z,11.50
2018-01-05T20:48:48.575Z,11.40
2018-01-05T20:51:16.147Z,11.50
2018-01-05T20:53:43.728Z,11.50
2018-01-05T20:56:11.693Z,11.40
2018-01-05T20:58:39.259Z,11.50
2018-01-05T21:01:06.852Z,11.40
2018-01-05T21:03:34.421Z,11.40
2018-01-05T21:06:02.008Z,11.40
2018-01-05T21:08:29.582Z,11.40
2018-01-05T21:10:57.922Z,11.30
2018-01-05T21:13:25.478Z,11.40
2018-01-05T21:15:53.072Z,11.10
2018-01-05T21:18:21.344Z,11.20
2018-01-05T21:20:49.316Z,11.20
2018-01-05T21:23:17.653Z,11.20
2018-01-05T21:25:46.201Z,11.10
2018-01-05T21:28:14.539Z,11.10
2018-01-05T21:30:42.888Z,11.20
2018-01-05T21:33:11.215Z,11.20
2018-01-05T21:35:39.776Z,11.20
2018-01-05T21:38:07.744Z,11.10
2018-01-05T21:40:36.836Z,11.10
2018-01-05T21:43:04.409Z,11.20
2018-01-05T21:45:32.712Z,11.10
2018-01-05T21:48:01.007Z,11.20
2018-01-05T21:50:29.376Z,11.20
2018-01-05T21:52:56.980Z,11.10
2018-01-05T21:55:24.957Z,11.20
2018-01-05T21:57:52.929Z,11.20
2018-01-05T22:00:20.452Z,11.20
2018-01-05T22:02:48.413Z,11.30
2018-01-05T22:05:17.236Z,11.30
2018-01-05T22:07:45.197Z,11.20
2018-01-05T22:10:14.327Z,11.20
2018-01-05T22:12:41.866Z,11.20
2018-01-05T22:15:10.198Z,11.20
2018-01-05T22:17:38.567Z,11.20
2018-01-05T22:20:06.887Z,11.20
2018-01-05T22:22:35.244Z,11.20
2018-01-05T22:25:03.588Z,10.80
2018-01-05T22:27:32.725Z,10.90
2018-01-05T22:30:01.050Z,10.90
2018-01-05T22:32:29.415Z,10.90
2018-01-05T22:34:57.004Z,10.90
2018-01-05T22:37:25.395Z,11.00
2018-01-05T22:39:53.353Z,11.00
2018-01-05T22:42:21.722Z,11.10
2018-01-05T22:44:50.054Z,11.00
2018-01-05T22:47:18.370Z,11.10
2018-01-05T22:49:46.986Z,11.10
2018-01-05T22:52:16.143Z,11.10
2018-01-05T22:54:43.698Z,11.20
2018-01-05T22:57:12.052Z,11.10
2018-01-05T22:59:40.388Z,11.00
2018-01-05T23:02:09.184Z,11.00
2018-01-05T23:04:36.769Z,11.10
2018-01-05T23:07:05.117Z,11.10
2018-01-05T23:09:33.454Z,11.00
2018-01-05T23:12:01.057Z,11.10
2018-01-05T23:14:28.978Z,11.20
2018-01-05T23:16:57.352Z,11.20
2018-01-05T23:19:25.666Z,9.90
2018-01-05T23:21:54.052Z,11.30
2018-01-05T23:24:23.071Z,11.40
2018-01-05T23:26:50.644Z,11.30
2018-01-05T23:29:19.008Z,11.20
2018-01-05T23:31:48.080Z,11.30
2018-01-05T23:34:16.606Z,11.30
2018-01-05T23:36:44.159Z,11.30
2018-01-05T23:39:13.063Z,11.30
2018-01-05T23:41:40.615Z,11.20
2018-01-05T23:44:09.804Z,11.30
2018-01-05T23:46:37.748Z,11.30
2018-01-05T23:49:05.731Z,11.30
2018-01-05T23:51:34.234Z,11.40
2018-01-05T23:54:02.204Z,11.30
2018-01-05T23:56:30.980Z,11.30
2018-01-05T23:58:58.948Z,11.20
